createdAt,value
2022-08-02T00:00:47.235Z,67.00
2022-08-02T00:03:16.159Z,67.15
2022-08-02T00:05:53.110Z,67.23
2022-08-02T00:08:24.342Z,67.24
2022-08-02T00:10:52.684Z,67.11
2022-08-02T00:13:21.521Z,67.26
2022-08-02T00:15:49.839Z,67.33
2022-08-02T00:18:19.090Z,67.04
2022-08-02T00:20:47.481Z,67.50
2022-08-02T00:23:16.596Z,67.85
2022-08-02T00:25:55.041Z,67.94
2022-08-02T00:28:27.738Z,68.00
2022-08-02T00:30:58.176Z,67.75
2022-08-02T00:34:26.205Z,67.58
2022-08-02T00:36:17.535Z,67.77
2022-08-02T00:38:48.357Z,67.67
2022-08-02T00:41:20.407Z,68.06
2022-08-02T00:43:50.876Z,67.78
2022-08-02T00:46:21.372Z,67.98
2022-08-02T00:48:50.643Z,68.16
2022-08-02T00:51:19.294Z,68.42
2022-08-02T00:53:48.556Z,68.27
2022-08-02T00:56:19.250Z,68.49
2022-08-02T00:58:48.486Z,68.04
2022-08-02T01:01:17.455Z,68.33
2022-08-02T01:03:45.899Z,68.55
2022-08-02T01:06:15.206Z,68.20
2022-08-02T01:08:44.425Z,68.14
2022-08-02T01:11:13.864Z,67.89
2022-08-02T01:13:44.153Z,67.60
2022-08-02T01:16:20.090Z,67.37
2022-08-02T01:18:54.512Z,68.08
2022-08-02T01:21:36.800Z,68.28
2022-08-02T01:24:21.277Z,68.54
2022-08-02T01:26:55.157Z,68.63
2022-08-02T01:29:30.539Z,68.77
2022-08-02T01:32:05.233Z,68.18
2022-08-02T01:34:36.891Z,68.40
2022-08-02T01:37:12.635Z,68.13
2022-08-02T01:39:44.636Z,67.93
2022-08-02T01:42:14.055Z,68.28
2022-08-02T01:44:47.288Z,68.46
2022-08-02T01:47:20.411Z,68.71
2022-08-02T01:49:53.013Z,68.79
2022-08-02T01:52:22.906Z,68.96
2022-08-02T01:54:58.478Z,69.05
2022-08-02T01:57:29.291Z,69.01
2022-08-02T02:00:01.890Z,69.40
2022-08-02T02:02:33.378Z,69.33
2022-08-02T02:05:04.202Z,69.54
2022-08-02T02:07:36.363Z,70.02
2022-08-02T02:10:09.125Z,70.41
2022-08-02T02:12:40.459Z,70.09
2022-08-02T02:15:14.290Z,70.54
2022-08-02T02:17:52.875Z,70.41
2022-08-02T02:20:57.198Z,70.65
2022-08-02T02:23:26.169Z,70.59
2022-08-02T02:25:59.482Z,70.44
2022-08-02T02:28:32.871Z,70.58
2022-08-02T02:31:08.555Z,70.65
2022-08-02T02:33:42.265Z,70.46
2022-08-02T02:36:12.910Z,70.38
2022-08-02T02:38:42.452Z,70.04
2022-08-02T02:41:12.599Z,70.03
2022-08-02T02:43:43.242Z,69.84
2022-08-02T02:46:14.516Z,69.51
2022-08-02T02:48:43.396Z,69.33
2022-08-02T02:51:14.157Z,69.67
2022-08-02T02:54:30.383Z,69.30
2022-08-02T02:56:34.363Z,69.46
2022-08-02T02:59:03.503Z,69.44
2022-08-02T03:01:55.929Z,69.50
2022-08-02T03:04:25.139Z,69.18
2022-08-02T03:06:54.155Z,68.66
2022-08-02T03:09:22.627Z,68.99
2022-08-02T03:11:52.911Z,68.81
2022-08-02T03:14:21.436Z,69.05
2022-08-02T03:16:53.675Z,68.87
2022-08-02T03:19:24.115Z,69.08
2022-08-02T03:22:02.119Z,69.26
2022-08-02T03:24:30.466Z,68.95
2022-08-02T03:26:59.399Z,69.35
2022-08-02T03:29:30.401Z,69.19
2022-08-02T03:32:04.651Z,69.25
2022-08-02T03:34:33.075Z,68.96
2022-08-02T03:37:04.146Z,68.71
2022-08-02T03:39:33.487Z,68.64
2022-08-02T03:42:03.299Z,68.63
2022-08-02T03:44:32.659Z,68.06
2022-08-02T03:47:02.151Z,68.06
2022-08-02T03:49:32.743Z,68.08
2022-08-02T03:52:02.894Z,68.22
2022-08-02T03:54:33.037Z,67.73
2022-08-02T03:57:03.960Z,67.71
2022-08-02T03:59:41.748Z,68.04
2022-08-02T04:02:10.707Z,67.85
2022-08-02T04:04:41.814Z,67.68
2022-08-02T04:07:10.531Z,67.43
2022-08-02T04:09:39.855Z,67.72
2022-08-02T04:12:09.603Z,67.13
2022-08-02T04:14:38.249Z,67.42
2022-08-02T04:17:10.563Z,67.06
2022-08-02T04:19:44.568Z,66.91
2022-08-02T04:22:19.875Z,66.91
2022-08-02T04:24:51.786Z,66.97
2022-08-02T04:27:50.814Z,66.48
2022-08-02T04:30:12.924Z,66.52
2022-08-02T04:32:42.199Z,66.61
2022-08-02T04:35:19.058Z,66.81
2022-08-02T04:38:08.600Z,67.08
2022-08-02T04:40:39.157Z,67.11
2022-08-02T04:43:09.037Z,66.96
2022-08-02T04:45:38.314Z,66.99
2022-08-02T04:48:08.189Z,66.79
2022-08-02T04:50:37.944Z,66.36
2022-08-02T04:53:06.772Z,66.69
2022-08-02T04:55:35.209Z,66.23
2022-08-02T04:58:23.769Z,66.47
2022-08-02T05:00:53.045Z,65.93
2022-08-02T05:03:22.226Z,66.10
2022-08-02T05:05:52.323Z,65.97
2022-08-02T05:08:20.650Z,65.82
2022-08-02T05:10:49.796Z,66.06
2022-08-02T05:13:18.144Z,65.88
2022-08-02T05:15:49.690Z,66.08
2022-08-02T05:18:18.079Z,66.09
2022-08-02T05:20:46.614Z,65.85
2022-08-02T05:23:16.687Z,66.36
2022-08-02T05:25:45.320Z,66.34
2022-08-02T05:28:14.267Z,66.09
2022-08-02T05:30:42.611Z,66.83
2022-08-02T05:33:11.988Z,66.33
2022-08-02T05:35:40.689Z,66.44
2022-08-02T05:38:10.313Z,66.84
2022-08-02T05:40:46.695Z,66.33
2022-08-02T05:43:24.201Z,66.39
2022-08-02T05:45:54.905Z,66.12
2022-08-02T05:48:27.648Z,65.96
2022-08-02T05:51:05.723Z,66.38
2022-08-02T05:53:39.888Z,66.14
2022-08-02T05:56:20.130Z,66.04
2022-08-02T05:58:57.581Z,65.83
2022-08-02T06:01:30.514Z,66.12
2022-08-02T06:04:01.290Z,65.83
2022-08-02T06:06:33.383Z,65.76
2022-08-02T06:09:03.967Z,65.67
2022-08-02T06:11:38.508Z,65.61
2022-08-02T06:14:08.304Z,65.60
2022-08-02T06:16:42.505Z,65.54
2022-08-02T06:19:13.205Z,65.23
2022-08-02T06:22:30.614Z,65.20
2022-08-02T06:24:34.068Z,65.20
2022-08-02T06:27:04.331Z,65.12
2022-08-02T06:29:38.515Z,65.47
2022-08-02T06:32:10.196Z,65.40
2022-08-02T06:34:39.054Z,65.20
2022-08-02T06:37:15.574Z,65.54
2022-08-02T06:39:46.846Z,65.47
2022-08-02T06:42:27.312Z,65.41
2022-08-02T06:44:58.499Z,65.58
2022-08-02T06:47:27.956Z,65.60
2022-08-02T06:49:56.958Z,65.88
2022-08-02T06:52:29.620Z,65.61
2022-08-02T06:55:00.485Z,65.49
2022-08-02T06:57:32.293Z,65.32
2022-08-02T07:00:02.918Z,65.07
2022-08-02T07:02:32.591Z,65.34
2022-08-02T07:05:01.096Z,65.38
2022-08-02T07:07:29.979Z,65.48
2022-08-02T07:10:01.279Z,65.59
2022-08-02T07:12:32.599Z,65.13
2022-08-02T07:15:03.026Z,65.24
2022-08-02T07:17:32.296Z,65.04
2022-08-02T07:20:02.156Z,65.25
2022-08-02T07:22:31.372Z,65.71
2022-08-02T07:25:01.981Z,65.71
2022-08-02T07:27:32.152Z,65.46
2022-08-02T07:30:02.187Z,65.01
2022-08-02T07:32:33.044Z,64.51
2022-08-02T07:35:05.144Z,64.69
2022-08-02T07:37:53.607Z,63.93
2022-08-02T07:40:25.587Z,64.00
2022-08-02T07:43:02.769Z,63.69
2022-08-02T07:45:35.656Z,63.38
2022-08-02T07:48:06.041Z,63.40
2022-08-02T07:50:34.872Z,63.35
2022-08-02T07:53:03.240Z,63.47
2022-08-02T07:55:39.681Z,63.20
2022-08-02T07:58:13.496Z,62.71
2022-08-02T08:00:43.695Z,62.54
2022-08-02T08:03:12.426Z,62.53
2022-08-02T08:05:41.035Z,62.31
2022-08-02T08:08:16.684Z,62.17
2022-08-02T08:10:46.091Z,62.38
2022-08-02T08:13:16.819Z,61.86
2022-08-02T08:15:51.734Z,61.54
2022-08-02T08:18:21.751Z,61.25
2022-08-02T08:20:51.636Z,60.94
2022-08-02T08:23:20.212Z,60.33
2022-08-02T08:25:48.785Z,60.33
2022-08-02T08:28:18.523Z,60.21
2022-08-02T08:30:47.567Z,59.66
2022-08-02T08:33:16.707Z,59.98
2022-08-02T08:35:45.320Z,59.99
2022-08-02T08:38:15.786Z,59.67
2022-08-02T08:40:44.775Z,59.65
2022-08-02T08:43:14.706Z,59.42
2022-08-02T08:45:46.607Z,59.13
2022-08-02T08:48:30.996Z,58.78
2022-08-02T08:51:05.696Z,58.80
2022-08-02T08:53:41.030Z,59.01
2022-08-02T08:56:15.908Z,58.83
2022-08-02T08:58:47.379Z,58.38
2022-08-02T09:01:18.096Z,58.35
2022-08-02T09:03:46.940Z,57.88
2022-08-02T09:06:15.957Z,57.92
2022-08-02T09:08:44.876Z,57.71
2022-08-02T09:11:15.775Z,57.70
2022-08-02T09:13:53.648Z,57.53
2022-08-02T09:16:35.184Z,57.16
2022-08-02T09:19:18.623Z,56.80
2022-08-02T09:21:48.343Z,56.55
2022-08-02T09:24:18.660Z,56.15
2022-08-02T09:26:48.003Z,55.57
2022-08-02T09:29:17.184Z,55.37
2022-08-02T09:31:49.963Z,55.24
2022-08-02T09:34:20.071Z,54.43
2022-08-02T09:36:48.731Z,53.84
2022-08-02T09:39:26.674Z,53.26
2022-08-02T09:42:10.585Z,52.51
2022-08-02T09:44:39.660Z,52.04
2022-08-02T09:47:18.107Z,52.10
2022-08-02T09:49:52.385Z,51.78
2022-08-02T09:52:37.079Z,51.40
2022-08-02T09:55:13.421Z,50.93
2022-08-02T09:57:41.885Z,49.72
2022-08-02T10:00:14.240Z,49.64
2022-08-02T10:03:21.639Z,49.01
2022-08-02T10:05:57.333Z,49.23
2022-08-02T10:08:33.687Z,49.46
2022-08-02T10:11:03.475Z,49.28
2022-08-02T10:13:34.612Z,48.78
2022-08-02T10:16:04.788Z,48.59
2022-08-02T10:18:39.246Z,49.07
2022-08-02T10:21:14.777Z,48.46
2022-08-02T10:23:45.574Z,47.65
2022-08-02T10:26:17.186Z,47.23
2022-08-02T10:28:49.316Z,47.60
2022-08-02T10:31:22.384Z,47.10
2022-08-02T10:33:53.885Z,46.41
2022-08-02T10:36:27.477Z,46.34
2022-08-02T10:38:58.741Z,45.41
2022-08-02T10:41:45.164Z,45.77
2022-08-02T10:44:26.660Z,45.11
2022-08-02T10:47:23.247Z,44.50
2022-08-02T10:49:55.442Z,43.91
2022-08-02T10:52:24.824Z,43.51
2022-08-02T10:54:57.124Z,43.68
2022-08-02T10:57:28.279Z,43.83
2022-08-02T10:59:59.249Z,44.26
2022-08-02T11:02:41.879Z,43.50
2022-08-02T11:05:17.869Z,42.56
2022-08-02T11:07:49.426Z,41.79
2022-08-02T11:10:38.730Z,40.40
2022-08-02T11:13:10.892Z,40.16
2022-08-02T11:16:01.228Z,39.59
2022-08-02T11:19:06.680Z,39.13
2022-08-02T11:21:37.332Z,38.54
2022-08-02T11:24:31.080Z,37.61
2022-08-02T11:27:00.858Z,36.66
2022-08-02T11:29:38.743Z,35.97
2022-08-02T11:32:08.557Z,36.11
2022-08-02T11:34:38.391Z,35.22
2022-08-02T11:37:08.374Z,35.00
2022-08-02T11:39:37.553Z,34.34
2022-08-02T11:42:06.146Z,34.64
2022-08-02T11:47:33.020Z,34.62
2022-08-02T11:50:08.655Z,33.96
2022-08-02T11:52:39.065Z,33.50
2022-08-02T11:55:09.702Z,33.34
2022-08-02T11:58:04.783Z,33.61
2022-08-02T12:00:30.755Z,33.90
2022-08-02T12:03:00.046Z,33.91
2022-08-02T12:08:22.178Z,33.54
2022-08-02T12:10:54.164Z,33.22
2022-08-02T12:13:22.624Z,33.93
2022-08-02T12:15:51.351Z,33.56
2022-08-02T12:18:39.727Z,33.07
2022-08-02T12:21:23.264Z,32.03
2022-08-02T12:23:59.438Z,30.89
2022-08-02T12:26:30.782Z,31.27
2022-08-02T12:29:01.383Z,30.74
2022-08-02T12:31:56.794Z,30.45
2022-08-02T12:34:31.706Z,30.33
2022-08-02T12:37:06.347Z,30.26
2022-08-02T12:39:41.665Z,30.45
2022-08-02T12:42:12.193Z,29.88
2022-08-02T12:44:52.597Z,29.10
2022-08-02T12:47:22.598Z,28.31
2022-08-02T12:50:12.052Z,28.46
2022-08-02T12:52:40.911Z,27.63
2022-08-02T12:55:25.937Z,27.47
2022-08-02T12:58:14.706Z,27.14
2022-08-02T13:00:54.528Z,26.64
2022-08-02T13:04:11.238Z,26.26
2022-08-02T13:06:41.021Z,26.46
2022-08-02T13:09:02.583Z,26.64
2022-08-02T13:11:32.385Z,26.40
2022-08-02T13:14:01.116Z,26.30
2022-08-02T13:16:31.639Z,25.67
2022-08-02T13:19:00.839Z,26.54
2022-08-02T13:21:41.774Z,25.65
2022-08-02T13:24:37.861Z,26.42
2022-08-02T13:27:09.508Z,25.63
2022-08-02T13:29:39.312Z,25.40
2022-08-02T13:32:07.969Z,25.23
2022-08-02T13:34:36.378Z,25.20
2022-08-02T13:37:05.861Z,24.66
2022-08-02T13:39:34.282Z,24.43
2022-08-02T13:42:03.320Z,24.24
2022-08-02T13:44:33.197Z,24.61
2022-08-02T13:47:02.396Z,24.31
2022-08-02T13:49:50.752Z,24.23
2022-08-02T13:52:20.663Z,23.92
2022-08-02T13:54:49.274Z,24.15
2022-08-02T13:57:17.695Z,24.34
2022-08-02T13:59:56.938Z,24.48
2022-08-02T14:02:28.365Z,25.08
2022-08-02T14:04:58.082Z,24.43
2022-08-02T14:07:26.457Z,24.61
2022-08-02T14:09:55.429Z,24.05
2022-08-02T14:12:23.824Z,23.75
2022-08-02T14:14:54.138Z,23.82
2022-08-02T14:17:22.538Z,23.98
2022-08-02T14:19:51.797Z,24.15
2022-08-02T14:22:20.246Z,24.19
2022-08-02T14:24:49.156Z,23.77
2022-08-02T14:27:17.532Z,24.24
2022-08-02T14:29:48.125Z,24.00
2022-08-02T14:32:17.966Z,23.69
2022-08-02T14:34:46.517Z,23.60
2022-08-02T14:37:17.020Z,23.34
2022-08-02T14:40:00.095Z,23.47
2022-08-02T14:42:29.917Z,23.38
2022-08-02T14:44:58.426Z,23.60
2022-08-02T14:47:28.179Z,24.19
2022-08-02T14:49:56.856Z,24.60
2022-08-02T14:52:25.585Z,24.41
2022-08-02T14:54:53.976Z,24.12
2022-08-02T14:57:24.596Z,24.17
2022-08-02T14:59:53.108Z,23.35
2022-08-02T15:02:22.156Z,23.18
2022-08-02T15:04:51.967Z,22.84
2022-08-02T15:07:20.722Z,23.15
2022-08-02T15:09:49.725Z,22.49
2022-08-02T15:12:18.364Z,22.47
2022-08-02T15:14:47.135Z,22.81
2022-08-02T15:17:15.494Z,22.90
2022-08-02T15:19:58.943Z,22.68
2022-08-02T15:22:30.990Z,23.14
2022-08-02T15:24:59.700Z,22.59
2022-08-02T15:27:28.891Z,22.74
2022-08-02T15:30:00.355Z,22.66
2022-08-02T15:32:29.716Z,21.98
2022-08-02T15:34:58.110Z,22.20
2022-08-02T15:37:31.015Z,22.75
2022-08-02T15:40:01.806Z,22.96
2022-08-02T15:42:31.140Z,22.92
2022-08-02T15:45:00.721Z,23.21
2022-08-02T15:47:29.503Z,23.28
2022-08-02T15:49:58.690Z,23.58
2022-08-02T15:52:27.589Z,23.68
2022-08-02T15:54:56.766Z,23.29
2022-08-02T15:57:37.583Z,23.31
2022-08-02T16:00:15.755Z,23.41
2022-08-02T16:02:47.871Z,23.78
2022-08-02T16:05:18.492Z,23.36
2022-08-02T16:07:47.548Z,23.75
2022-08-02T16:10:17.094Z,23.36
2022-08-02T16:12:47.872Z,23.69
2022-08-02T16:15:16.379Z,23.73
2022-08-02T16:17:48.912Z,23.95
2022-08-02T16:20:23.391Z,24.04
2022-08-02T16:22:51.823Z,24.12
2022-08-02T16:25:20.780Z,24.18
2022-08-02T16:28:06.638Z,24.15
2022-08-02T16:30:37.150Z,24.41
2022-08-02T16:33:05.707Z,25.07
2022-08-02T16:35:35.167Z,25.17
2022-08-02T16:38:03.586Z,25.32
2022-08-02T16:40:34.388Z,25.55
2022-08-02T16:43:09.165Z,25.62
2022-08-02T16:45:37.901Z,25.73
2022-08-02T16:48:07.693Z,25.57
2022-08-02T16:50:38.421Z,25.37
2022-08-02T16:53:07.723Z,25.37
2022-08-02T16:55:37.247Z,25.71
2022-08-02T16:58:09.516Z,25.77
2022-08-02T17:00:38.782Z,26.05
2022-08-02T17:03:16.839Z,26.22
2022-08-02T17:05:56.200Z,26.00
2022-08-02T17:08:31.831Z,26.56
2022-08-02T17:11:03.571Z,26.57
2022-08-02T17:13:37.949Z,26.78
2022-08-02T17:16:26.014Z,27.06
2022-08-02T17:18:56.614Z,27.24
2022-08-02T17:21:24.990Z,27.37
2022-08-02T17:24:05.191Z,27.95
2022-08-02T17:26:35.562Z,28.10
2022-08-02T17:29:16.425Z,27.84
2022-08-02T17:32:04.791Z,28.01
2022-08-02T17:34:37.242Z,28.10
2022-08-02T17:37:06.757Z,28.53
2022-08-02T17:39:43.911Z,28.25
2022-08-02T17:42:23.464Z,28.24
2022-08-02T17:45:00.991Z,28.87
2022-08-02T17:47:42.079Z,29.37
2022-08-02T17:50:12.490Z,29.48
2022-08-02T17:52:51.776Z,29.53
2022-08-02T17:55:22.665Z,30.21
2022-08-02T17:57:57.822Z,30.42
2022-08-02T18:00:34.738Z,30.88
2022-08-02T18:03:05.809Z,31.25
2022-08-02T18:05:39.675Z,31.35
2022-08-02T18:08:22.906Z,32.12
2022-08-02T18:10:52.764Z,32.03
2022-08-02T18:13:21.171Z,33.03
2022-08-02T18:15:59.070Z,33.31
2022-08-02T18:18:30.366Z,33.83
2022-08-02T18:21:08.190Z,33.54
2022-08-02T18:23:58.621Z,34.05
2022-08-02T18:26:29.314Z,34.40
2022-08-02T18:28:58.604Z,34.58
2022-08-02T18:31:28.766Z,34.20
2022-08-02T18:34:08.504Z,34.70
2022-08-02T18:36:37.037Z,34.53
2022-08-02T18:39:16.852Z,35.09
2022-08-02T18:41:47.927Z,35.03
2022-08-02T18:44:17.232Z,35.23
2022-08-02T18:46:49.319Z,35.28
2022-08-02T18:49:18.536Z,36.03
2022-08-02T18:51:47.014Z,36.42
2022-08-02T18:54:16.687Z,36.82
2022-08-02T18:56:59.317Z,36.42
2022-08-02T18:59:27.964Z,36.80
2022-08-02T19:02:06.826Z,37.26
2022-08-02T19:04:35.463Z,37.29
2022-08-02T19:07:07.673Z,38.13
2022-08-02T19:09:40.104Z,38.58
2022-08-02T19:12:11.333Z,38.92
2022-08-02T19:14:41.465Z,39.15
2022-08-02T19:17:53.959Z,39.25
2022-08-02T19:20:00.131Z,39.76
2022-08-02T19:22:29.935Z,40.06
2022-08-02T19:25:01.563Z,40.51
2022-08-02T19:27:32.508Z,40.73
2022-08-02T19:30:03.279Z,41.03
2022-08-02T19:32:40.217Z,41.21
2022-08-02T19:35:28.257Z,41.67
2022-08-02T19:38:07.366Z,41.99
2022-08-02T19:40:37.020Z,42.04
2022-08-02T19:44:20.806Z,42.26
2022-08-02T19:45:57.137Z,42.31
2022-08-02T19:48:28.105Z,42.58
2022-08-02T19:51:01.181Z,42.96
2022-08-02T19:53:46.957Z,43.10
2022-08-02T19:56:25.032Z,43.27
2022-08-02T19:58:57.566Z,43.36
2022-08-02T20:01:36.609Z,43.38
2022-08-02T20:04:13.073Z,43.53
2022-08-02T20:06:47.493Z,43.72
2022-08-02T20:09:21.001Z,44.25
2022-08-02T20:14:40.364Z,44.00
2022-08-02T20:17:21.574Z,44.01
2022-08-02T20:19:52.284Z,44.13
2022-08-02T20:22:20.671Z,44.11
2022-08-02T20:24:49.666Z,44.25
2022-08-02T20:27:21.752Z,44.19
2022-08-02T20:29:53.077Z,44.52
2022-08-02T20:32:24.681Z,44.46
2022-08-02T20:34:54.881Z,44.61
2022-08-02T20:37:59.800Z,44.78
2022-08-02T20:43:02.458Z,45.35
2022-08-02T20:45:33.721Z,45.54
2022-08-02T20:48:02.571Z,45.66
2022-08-02T20:50:53.223Z,45.50
2022-08-02T20:53:25.924Z,45.78
2022-08-02T20:55:58.294Z,45.69
2022-08-02T20:58:28.104Z,45.70
2022-08-02T21:00:59.241Z,45.93
2022-08-02T21:03:39.466Z,46.25
2022-08-02T21:06:15.065Z,46.47
2022-08-02T21:08:45.948Z,46.58
2022-08-02T21:11:15.323Z,46.78
2022-08-02T21:13:46.754Z,46.97
2022-08-02T21:16:19.160Z,47.32
2022-08-02T21:18:49.109Z,47.57
2022-08-02T21:21:20.532Z,47.68
2022-08-02T21:23:54.849Z,47.71
2022-08-02T21:26:27.801Z,47.90
2022-08-02T21:28:58.101Z,48.17
2022-08-02T21:31:29.845Z,48.00
2022-08-02T21:34:00.268Z,48.46
2022-08-02T21:36:33.152Z,48.42
2022-08-02T21:39:05.834Z,48.72
2022-08-02T21:44:28.638Z,49.43
2022-08-02T21:46:58.675Z,49.51
2022-08-02T21:50:08.506Z,49.72
2022-08-02T21:52:19.298Z,49.56
2022-08-02T21:54:47.825Z,50.07
2022-08-02T21:57:17.471Z,49.79
2022-08-02T21:59:46.910Z,49.88
2022-08-02T22:02:18.686Z,50.14
2022-08-02T22:04:48.332Z,50.31
2022-08-02T22:07:23.667Z,50.54
2022-08-02T22:09:53.982Z,50.54
2022-08-02T22:12:26.488Z,50.73
2022-08-02T22:14:56.528Z,50.90
2022-08-02T22:17:51.597Z,51.19
2022-08-02T22:20:19.946Z,51.06
2022-08-02T22:22:53.228Z,51.49
2022-08-02T22:25:31.475Z,51.26
2022-08-02T22:28:38.592Z,51.47
2022-08-02T22:30:56.639Z,51.42
2022-08-02T22:33:59.829Z,51.85
2022-08-02T22:36:31.681Z,51.71
2022-08-02T22:39:02.467Z,51.72
2022-08-02T22:42:02.312Z,52.03
2022-08-02T22:44:20.430Z,52.34
2022-08-02T22:46:50.506Z,52.19
2022-08-02T22:49:37.683Z,52.24
2022-08-02T22:52:10.750Z,52.33
2022-08-02T22:54:40.667Z,52.06
2022-08-02T22:57:12.845Z,52.44
2022-08-02T22:58:55.966Z,45.03
2022-08-02T22:59:07.335Z,44.08
2022-08-02T22:59:41.845Z,52.37
2022-08-02T23:02:10.529Z,52.13
2022-08-02T23:04:39.362Z,52.66
2022-08-02T23:07:08.499Z,52.91
2022-08-02T23:09:37.491Z,52.90
2022-08-02T23:12:07.983Z,53.10
2022-08-02T23:14:37.367Z,53.01
2022-08-02T23:17:23.336Z,52.92
2022-08-02T23:19:52.536Z,52.76
2022-08-02T23:22:29.569Z,52.80
2022-08-02T23:25:02.362Z,53.02
2022-08-02T23:27:33.116Z,52.84
2022-08-02T23:30:02.581Z,52.85
2022-08-02T23:32:31.912Z,53.10
2022-08-02T23:35:01.376Z,53.40
2022-08-02T23:37:57.943Z,53.29
2022-08-02T23:40:39.394Z,53.21
2022-08-02T23:43:14.497Z,53.50
2022-08-02T23:45:45.973Z,53.63
2022-08-02T23:48:14.690Z,53.68
2022-08-02T23:50:44.005Z,53.33
2022-08-02T23:53:12.356Z,53.58
2022-08-02T23:55:41.533Z,53.50
2022-08-02T23:58:13.366Z,53.64
